Time;durP1;ratioP1;P1;durP2;ratioP2;P2;SDS_P1;SDS_P2;PMS_P1;PMS_P2;Temp;Humidity;BMP_temperature;BMP_pressure;BME280_temperature;BME280_humidity;BME280_pressure;Samples;Min_cycle;Max_cycle;Signal;HPM_P1;HPM_P2
2022/02/13 00:04:08;;;;;;;14.52;4.28;;;;;;;;;;10294223;28;20027;-60
2022/02/13 00:09:09;;;;;;;6.25;4.13;;;;;;;;;;10327477;28;20261;-59
2022/02/13 00:14:10;;;;;;;6.25;4.10;;;;;;;;;;10322064;28;20031;-59
2022/02/13 00:19:10;;;;;;;8.13;3.97;;;;;;;;;;10304184;28;20474;-59
2022/02/13 00:24:10;;;;;;;6.60;4.50;;;;;;;;;;10328492;28;20467;-59
2022/02/13 00:29:11;;;;;;;6.78;3.95;;;;;;;;;;10313768;28;20182;-59
2022/02/13 00:34:11;;;;;;;14.43;4.25;;;;;;;;;;10302434;28;20045;-59
2022/02/13 00:39:12;;;;;;;11.33;3.97;;;;;;;;;;10318990;28;20034;-59
2022/02/13 00:44:12;;;;;;;9.27;4.03;;;;;;;;;;10325364;28;20544;-59
2022/02/13 00:49:13;;;;;;;8.43;3.80;;;;;;;;;;10321431;28;20041;-61
2022/02/13 00:54:13;;;;;;;22.00;3.93;;;;;;;;;;10327374;28;20026;-58
2022/02/13 00:59:13;;;;;;;6.53;3.47;;;;;;;;;;10315275;28;20460;-60
2022/02/13 01:04:14;;;;;;;12.85;3.60;;;;;;;;;;10289021;28;20037;-60
2022/02/13 01:09:14;;;;;;;7.53;3.58;;;;;;;;;;10317619;28;20385;-60
2022/02/13 01:14:15;;;;;;;8.07;3.50;;;;;;;;;;10325069;28;20026;-61
2022/02/13 01:19:16;;;;;;;6.75;3.78;;;;;;;;;;10319390;28;20146;-60
2022/02/13 01:24:16;;;;;;;5.67;3.40;;;;;;;;;;10327073;28;20112;-59
2022/02/13 01:29:16;;;;;;;8.03;3.97;;;;;;;;;;10326328;28;20519;-59
2022/02/13 01:34:18;;;;;;;4.77;3.30;;;;;;;;;;10326472;28;20042;-59
2022/02/13 01:39:18;;;;;;;7.07;3.65;;;;;;;;;;10319454;28;20057;-59
2022/02/13 01:44:28;;;;;;;7.40;2.97;;;;;;;;;;10306980;28;20129;-60
2022/02/13 01:49:28;;;;;;;5.00;3.20;;;;;;;;;;10332388;28;20480;-60
2022/02/13 01:54:29;;;;;;;4.93;3.15;;;;;;;;;;10333408;28;20038;-59
2022/02/13 01:59:29;;;;;;;3.92;2.92;;;;;;;;;;10332950;28;20041;-60
2022/02/13 02:04:30;;;;;;;11.05;3.45;;;;;;;;;;10332141;28;20073;-59
2022/02/13 02:09:31;;;;;;;6.72;3.30;;;;;;;;;;10326166;28;20030;-60
2022/02/13 02:14:31;;;;;;;4.37;2.90;;;;;;;;;;10333188;28;20042;-60
2022/02/13 02:19:32;;;;;;;4.57;3.08;;;;;;;;;;10332227;28;20707;-60
2022/02/13 02:24:32;;;;;;;7.03;3.20;;;;;;;;;;10329732;28;20117;-60
2022/02/13 02:29:33;;;;;;;5.15;2.90;;;;;;;;;;10332982;28;20030;-60
2022/02/13 02:34:33;;;;;;;3.28;2.50;;;;;;;;;;10331536;28;20033;-60
2022/02/13 02:39:34;;;;;;;9.53;3.13;;;;;;;;;;10332563;28;20359;-59
2022/02/13 02:44:34;;;;;;;9.43;2.95;;;;;;;;;;10324477;28;20456;-59
2022/02/13 02:49:35;;;;;;;3.88;2.40;;;;;;;;;;10332228;28;20547;-59
2022/02/13 02:54:35;;;;;;;5.27;2.70;;;;;;;;;;10324374;28;20045;-60
2022/02/13 02:59:35;;;;;;;3.63;2.70;;;;;;;;;;10330132;28;20638;-59
2022/02/13 03:04:36;;;;;;;3.50;2.60;;;;;;;;;;10331120;28;20386;-59
2022/02/13 03:09:36;;;;;;;5.57;3.28;;;;;;;;;;10305295;28;20619;-60
2022/02/13 03:14:36;;;;;;;6.13;2.80;;;;;;;;;;10323718;28;20091;-60
2022/02/13 03:19:37;;;;;;;3.30;2.57;;;;;;;;;;10330599;28;20076;-60
2022/02/13 03:24:38;;;;;;;4.50;2.20;;;;;;;;;;10330547;28;20827;-60
2022/02/13 03:29:38;;;;;;;3.53;2.63;;;;;;;;;;10328116;28;20037;-60
2022/02/13 03:34:38;;;;;;;4.03;2.70;;;;;;;;;;10330037;28;20491;-59
2022/02/13 03:39:39;;;;;;;4.00;2.63;;;;;;;;;;10330334;28;20041;-60
2022/02/13 03:44:40;;;;;;;3.13;2.37;;;;;;;;;;10324413;28;20114;-60
2022/02/13 03:49:40;;;;;;;3.58;2.70;;;;;;;;;;10292327;28;20489;-60
2022/02/13 03:54:40;;;;;;;2.77;2.30;;;;;;;;;;10305723;28;20046;-59
2022/02/13 03:59:41;;;;;;;3.70;2.47;;;;;;;;;;10322280;28;20475;-60
2022/02/13 04:04:41;;;;;;;3.10;2.40;;;;;;;;;;10328939;28;20669;-59
2022/02/13 04:09:42;;;;;;;3.13;2.37;;;;;;;;;;10322122;28;20534;-60
2022/02/13 04:14:42;;;;;;;4.38;2.20;;;;;;;;;;10328825;28;20037;-60
2022/02/13 04:19:43;;;;;;;5.10;2.53;;;;;;;;;;10327644;28;20027;-60
2022/02/13 04:24:43;;;;;;;7.65;2.15;;;;;;;;;;10328377;28;20468;-60
2022/02/13 04:29:44;;;;;;;13.93;3.07;;;;;;;;;;10327732;28;20049;-60
2022/02/13 04:34:46;;;;;;;3.40;2.17;;;;;;;;;;10323510;28;21014;-60
2022/02/13 04:39:46;;;;;;;5.95;2.33;;;;;;;;;;10328246;28;20046;-60
2022/02/13 04:44:46;;;;;;;4.93;2.40;;;;;;;;;;10320913;28;20500;-60
2022/02/13 04:49:47;;;;;;;5.28;1.92;;;;;;;;;;10307633;28;20484;-60
2022/02/13 04:54:47;;;;;;;4.55;2.10;;;;;;;;;;10309399;28;20458;-60
2022/02/13 04:59:48;;;;;;;7.95;2.10;;;;;;;;;;10301683;28;20027;-59
2022/02/13 05:04:48;;;;;;;2.90;1.90;;;;;;;;;;10292805;28;20375;-60
2022/02/13 05:09:49;;;;;;;3.57;2.20;;;;;;;;;;10326750;28;20042;-60
2022/02/13 05:14:50;;;;;;;3.30;2.20;;;;;;;;;;10326430;28;20378;-60
2022/02/13 05:19:51;;;;;;;3.40;2.13;;;;;;;;;;10326572;28;20038;-60
2022/02/13 05:24:52;;;;;;;2.88;2.17;;;;;;;;;;10334283;28;20149;-60
2022/02/13 05:29:53;;;;;;;4.00;2.40;;;;;;;;;;10334460;28;20528;-59
2022/02/13 05:34:53;;;;;;;3.57;2.27;;;;;;;;;;10334395;28;20465;-60
2022/02/13 05:39:53;;;;;;;2.80;1.90;;;;;;;;;;10321910;28;20033;-60
2022/02/13 05:44:54;;;;;;;2.43;2.03;;;;;;;;;;10333548;28;20084;-60
2022/02/13 05:49:54;;;;;;;2.58;2.00;;;;;;;;;;10334248;28;20038;-60
2022/02/13 05:54:55;;;;;;;2.73;1.90;;;;;;;;;;10333793;28;20041;-61
2022/02/13 05:59:55;;;;;;;3.07;1.93;;;;;;;;;;10333819;28;20500;-59
2022/02/13 06:04:56;;;;;;;4.30;2.17;;;;;;;;;;10324093;28;20489;-59
2022/02/13 06:09:57;;;;;;;2.85;2.22;;;;;;;;;;10325623;28;20495;-60
2022/02/13 06:14:57;;;;;;;6.35;1.98;;;;;;;;;;10333115;28;20046;-60
2022/02/13 06:19:58;;;;;;;2.33;1.87;;;;;;;;;;10327619;28;20047;-61
2022/02/13 06:24:58;;;;;;;4.83;2.23;;;;;;;;;;10325467;28;20793;-60
2022/02/13 06:29:59;;;;;;;2.07;1.80;;;;;;;;;;10319717;28;20126;-60
2022/02/13 06:34:59;;;;;;;6.60;1.90;;;;;;;;;;10313012;28;20480;-59
2022/02/13 06:39:59;;;;;;;4.30;1.70;;;;;;;;;;10323137;28;20073;-59
2022/02/13 06:45:00;;;;;;;3.85;2.00;;;;;;;;;;10317997;28;20819;-60
2022/02/13 06:50:01;;;;;;;7.70;2.10;;;;;;;;;;10329958;28;20072;-59
2022/02/13 06:55:01;;;;;;;4.28;2.00;;;;;;;;;;10330230;28;20477;-59
2022/02/13 07:00:12;;;;;;;3.53;1.63;;;;;;;;;;10319601;28;20031;-60
2022/02/13 07:05:13;;;;;;;8.00;2.00;;;;;;;;;;10321108;28;20038;-61
2022/02/13 07:10:13;;;;;;;10.05;2.50;;;;;;;;;;10311691;28;20039;-59
2022/02/13 07:15:14;;;;;;;6.80;2.42;;;;;;;;;;10316160;28;20026;-60
2022/02/13 07:20:14;;;;;;;9.93;2.47;;;;;;;;;;10314584;28;20053;-59
2022/02/13 07:25:15;;;;;;;7.43;2.42;;;;;;;;;;10329654;28;20381;-62
2022/02/13 07:30:15;;;;;;;5.97;2.20;;;;;;;;;;10329852;28;20030;-62
2022/02/13 07:35:15;;;;;;;9.23;2.33;;;;;;;;;;10330285;28;20069;-62
2022/02/13 07:40:16;;;;;;;8.15;2.85;;;;;;;;;;10319708;28;20999;-63
2022/02/13 07:45:16;;;;;;;6.50;2.47;;;;;;;;;;10253541;28;20026;-61
2022/02/13 07:50:17;;;;;;;10.30;2.65;;;;;;;;;;10252410;28;20848;-62
2022/02/13 07:55:17;;;;;;;8.70;2.90;;;;;;;;;;10255619;28;20677;-62
2022/02/13 08:00:18;;;;;;;12.18;2.90;;;;;;;;;;10243651;28;20586;-60
2022/02/13 08:05:18;;;;;;;4.60;2.65;;;;;;;;;;10257591;28;20451;-60
2022/02/13 08:10:19;;;;;;;15.80;7.53;;;;;;;;;;10255588;28;20034;-62
2022/02/13 08:15:19;;;;;;;8.48;3.70;;;;;;;;;;10256466;28;20577;-61
2022/02/13 08:20:20;;;;;;;6.77;3.23;;;;;;;;;;10261952;23;20569;-64
2022/02/13 08:25:20;;;;;;;6.55;3.33;;;;;;;;;;10245190;28;20475;-62
2022/02/13 08:30:21;;;;;;;7.88;3.33;;;;;;;;;;10254213;28;20034;-65
2022/02/13 08:35:23;;;;;;;11.38;3.65;;;;;;;;;;10253619;28;20042;-63
2022/02/13 08:40:24;;;;;;;8.57;3.88;;;;;;;;;;10252935;28;20136;-65
2022/02/13 08:45:25;;;;;;;9.45;3.53;;;;;;;;;;10243354;28;20104;-67
2022/02/13 08:50:26;;;;;;;9.13;3.55;;;;;;;;;;10249060;28;20022;-70
2022/02/13 08:55:27;;;;;;;13.35;4.30;;;;;;;;;;10232297;28;20492;-65
2022/02/13 09:00:27;;;;;;;14.23;3.70;;;;;;;;;;10243319;28;20513;-66
2022/02/13 09:05:27;;;;;;;7.13;3.77;;;;;;;;;;10248609;28;20519;-62
2022/02/13 09:10:28;;;;;;;7.45;3.50;;;;;;;;;;10243674;28;21001;-62
2022/02/13 09:15:30;;;;;;;10.00;3.55;;;;;;;;;;10251060;28;20935;-63
2022/02/13 09:20:30;;;;;;;6.10;3.42;;;;;;;;;;10260506;28;20966;-63
2022/02/13 09:25:31;;;;;;;8.32;3.35;;;;;;;;;;10220322;28;20049;-67
2022/02/13 09:30:31;;;;;;;8.13;3.33;;;;;;;;;;10245509;28;20771;-67
2022/02/13 09:35:32;;;;;;;9.73;2.75;;;;;;;;;;10246831;28;20048;-70
2022/02/13 09:40:35;;;;;;;9.23;3.97;;;;;;;;;;10241735;28;20089;-64
2022/02/13 09:45:40;;;;;;;6.35;3.33;;;;;;;;;;10246218;28;20453;-69
2022/02/13 09:50:40;;;;;;;6.70;3.00;;;;;;;;;;10238980;28;20106;-67
2022/02/13 09:55:42;;;;;;;8.00;3.00;;;;;;;;;;10237973;28;20761;-67
2022/02/13 10:01:04;;;;;;;5.55;2.97;;;;;;;;;;10243035;28;20125;-63
2022/02/13 10:06:10;;;;;;;5.22;2.92;;;;;;;;;;10253065;28;20612;-65
2022/02/13 10:11:25;;;;;;;8.10;3.17;;;;;;;;;;10248560;28;20445;-66
2022/02/13 10:16:37;;;;;;;13.93;7.32;;;;;;;;;;10245072;28;20053;-65
2022/02/13 10:21:39;;;;;;;29.45;15.43;;;;;;;;;;10250136;28;20449;-66
2022/02/13 10:26:40;;;;;;;37.40;20.20;;;;;;;;;;10245234;28;20480;-67
2022/02/13 10:31:42;;;;;;;49.65;26.35;;;;;;;;;;10238184;28;20620;-63
2022/02/13 10:36:45;;;;;;;62.55;33.70;;;;;;;;;;10246504;28;20084;-65
2022/02/13 10:41:46;;;;;;;62.00;34.00;;;;;;;;;;10251062;28;20133;-60
2022/02/13 10:46:47;;;;;;;68.47;36.85;;;;;;;;;;10248718;28;20030;-63
2022/02/13 10:51:48;;;;;;;72.47;40.10;;;;;;;;;;10251782;28;20038;-62
2022/02/13 10:56:49;;;;;;;83.18;44.80;;;;;;;;;;10246267;28;20034;-61
2022/02/13 11:01:50;;;;;;;83.28;44.75;;;;;;;;;;10250223;28;20567;-64
2022/02/13 11:06:51;;;;;;;84.95;47.53;;;;;;;;;;10250149;28;20034;-65
2022/02/13 11:11:52;;;;;;;93.35;54.15;;;;;;;;;;10251897;28;20441;-63
2022/02/13 11:16:53;;;;;;;89.43;50.13;;;;;;;;;;10250884;28;20035;-60
2022/02/13 11:21:54;;;;;;;90.60;52.95;;;;;;;;;;10247765;28;20042;-64
2022/02/13 11:27:00;;;;;;;92.47;54.53;;;;;;;;;;10249970;28;20382;-62
2022/02/13 11:32:02;;;;;;;96.35;58.60;;;;;;;;;;10240736;28;20494;-61
2022/02/13 11:37:11;;;;;;;88.03;51.58;;;;;;;;;;10229139;28;20809;-62
2022/02/13 11:42:19;;;;;;;93.88;54.60;;;;;;;;;;10248370;28;20129;-62
2022/02/13 11:47:32;;;;;;;98.47;57.85;;;;;;;;;;10248419;28;20097;-61
2022/02/13 11:52:40;;;;;;;105.70;62.58;;;;;;;;;;10246892;28;20375;-63
2022/02/13 11:58:04;;;;;;;94.20;55.97;;;;;;;;;;10249358;28;20145;-64
2022/02/13 12:03:28;;;;;;;99.30;57.60;;;;;;;;;;10249218;28;20421;-63
2022/02/13 12:08:29;;;;;;;97.75;57.80;;;;;;;;;;10228700;28;20443;-67
2022/02/13 12:13:30;;;;;;;104.68;60.25;;;;;;;;;;10242817;28;20042;-65
2022/02/13 12:18:30;;;;;;;96.00;53.85;;;;;;;;;;10249549;28;20140;-62
2022/02/13 12:23:31;;;;;;;74.17;44.20;;;;;;;;;;10270725;28;20646;-69
2022/02/13 12:28:36;;;;;;;72.05;41.95;;;;;;;;;;10321060;28;20471;-70
2022/02/13 12:33:43;;;;;;;75.03;42.10;;;;;;;;;;10327370;28;20198;-70
2022/02/13 12:38:44;;;;;;;72.43;40.92;;;;;;;;;;10311853;28;20027;-70
2022/02/13 12:43:44;;;;;;;64.47;39.27;;;;;;;;;;10322018;28;20038;-62
2022/02/13 12:48:45;;;;;;;71.93;39.87;;;;;;;;;;10314980;28;20026;-70
2022/02/13 12:53:46;;;;;;;69.95;38.10;;;;;;;;;;10324978;28;20038;-69
2022/02/13 12:58:46;;;;;;;69.15;38.58;;;;;;;;;;10326597;28;20030;-69
2022/02/13 13:03:51;;;;;;;62.53;37.73;;;;;;;;;;10326862;28;20616;-69
2022/02/13 13:08:52;;;;;;;56.83;35.17;;;;;;;;;;10323276;28;20461;-70
2022/02/13 13:13:52;;;;;;;61.80;35.33;;;;;;;;;;10326151;28;20030;-68
2022/02/13 13:18:59;;;;;;;54.20;31.27;;;;;;;;;;10324007;28;20030;-69
2022/02/13 13:24:13;;;;;;;48.53;27.85;;;;;;;;;;10322763;28;21458;-68
2022/02/13 13:29:18;;;;;;;53.95;25.83;;;;;;;;;;10311813;28;20037;-64
2022/02/13 13:34:19;;;;;;;49.55;26.70;;;;;;;;;;10266803;28;20038;-64
2022/02/13 13:39:31;;;;;;;46.05;27.05;;;;;;;;;;10247645;28;20037;-68
2022/02/13 13:44:32;;;;;;;48.28;25.63;;;;;;;;;;10244983;28;20193;-65
2022/02/13 13:49:33;;;;;;;36.97;22.92;;;;;;;;;;10251366;28;20084;-60
2022/02/13 13:54:34;;;;;;;45.88;24.40;;;;;;;;;;10249009;28;20062;-65
2022/02/13 13:59:35;;;;;;;38.50;23.48;;;;;;;;;;10253604;28;20042;-62
2022/02/13 14:04:35;;;;;;;39.30;22.53;;;;;;;;;;10252114;28;20049;-65
2022/02/13 14:09:35;;;;;;;38.67;22.10;;;;;;;;;;10255045;28;21070;-69
2022/02/13 14:14:36;;;;;;;41.97;23.60;;;;;;;;;;10253976;28;20241;-62
2022/02/13 14:19:36;;;;;;;33.53;20.40;;;;;;;;;;10253160;28;20043;-67
2022/02/13 14:24:37;;;;;;;38.35;21.10;;;;;;;;;;10250616;28;20982;-64
2022/02/13 14:29:37;;;;;;;33.63;19.50;;;;;;;;;;10239170;28;20124;-60
2022/02/13 14:34:38;;;;;;;33.67;20.70;;;;;;;;;;10251338;28;20473;-62
2022/02/13 14:39:38;;;;;;;31.75;20.35;;;;;;;;;;10253662;28;20867;-60
2022/02/13 14:44:39;;;;;;;34.72;19.13;;;;;;;;;;10251696;28;20029;-62
2022/02/13 14:49:42;;;;;;;30.45;18.17;;;;;;;;;;10251910;28;20441;-60
2022/02/13 14:54:43;;;;;;;31.98;17.40;;;;;;;;;;10241618;28;20064;-59
2022/02/13 14:59:44;;;;;;;29.25;18.02;;;;;;;;;;10250022;28;20136;-60
2022/02/13 15:04:44;;;;;;;30.13;18.30;;;;;;;;;;10244777;28;20446;-62
2022/02/13 15:09:45;;;;;;;27.40;16.77;;;;;;;;;;10251699;28;20045;-61
2022/02/13 15:14:47;;;;;;;30.80;17.50;;;;;;;;;;10250828;28;20475;-68
2022/02/13 15:19:47;;;;;;;26.77;16.55;;;;;;;;;;10249419;28;20040;-60
2022/02/13 15:24:48;;;;;;;25.73;16.30;;;;;;;;;;10249201;28;20440;-65
2022/02/13 15:29:50;;;;;;;25.93;16.27;;;;;;;;;;10246260;28;20068;-60
2022/02/13 15:34:50;;;;;;;22.80;15.32;;;;;;;;;;10250574;28;20472;-60
2022/02/13 15:39:51;;;;;;;22.27;15.02;;;;;;;;;;10244566;28;20042;-60
2022/02/13 15:44:51;;;;;;;28.83;14.98;;;;;;;;;;10266118;28;20161;-60
2022/02/13 15:49:51;;;;;;;21.93;14.97;;;;;;;;;;10263750;28;20066;-65
2022/02/13 15:54:52;;;;;;;22.07;13.37;;;;;;;;;;10248278;28;20058;-61
2022/02/13 15:59:55;;;;;;;21.48;13.95;;;;;;;;;;10250095;28;20476;-63
2022/02/13 16:04:55;;;;;;;24.08;14.43;;;;;;;;;;10234459;28;20078;-66
2022/02/13 16:09:55;;;;;;;19.92;13.23;;;;;;;;;;10241074;28;20034;-64
2022/02/13 16:14:56;;;;;;;24.37;13.47;;;;;;;;;;10249969;28;20366;-64
2022/02/13 16:19:56;;;;;;;19.17;13.23;;;;;;;;;;10247439;28;20472;-65
2022/02/13 16:24:57;;;;;;;19.90;12.83;;;;;;;;;;10236884;28;20452;-63
2022/02/13 16:29:57;;;;;;;23.70;13.25;;;;;;;;;;10247964;28;20038;-62
2022/02/13 16:34:58;;;;;;;30.85;13.00;;;;;;;;;;10248362;28;20041;-61
2022/02/13 16:40:00;;;;;;;19.73;13.10;;;;;;;;;;10245748;28;20034;-59
2022/02/13 16:45:00;;;;;;;22.52;12.40;;;;;;;;;;10244651;28;20022;-63
2022/02/13 16:50:00;;;;;;;20.48;11.90;;;;;;;;;;10245447;28;20037;-65
2022/02/13 16:55:01;;;;;;;22.23;12.70;;;;;;;;;;10246404;28;20523;-63
2022/02/13 17:00:01;;;;;;;22.33;11.90;;;;;;;;;;10249815;28;21054;-64
2022/02/13 17:05:05;;;;;;;17.35;12.10;;;;;;;;;;10246131;28;20828;-68
2022/02/13 17:10:05;;;;;;;18.77;12.23;;;;;;;;;;10235890;28;20524;-59
2022/02/13 17:15:08;;;;;;;24.92;11.88;;;;;;;;;;10247906;28;20030;-61
2022/02/13 17:20:09;;;;;;;19.42;11.68;;;;;;;;;;10238128;28;20473;-61
2022/02/13 17:25:09;;;;;;;14.93;10.43;;;;;;;;;;10245388;28;20663;-61
2022/02/13 17:30:10;;;;;;;16.98;10.13;;;;;;;;;;10232995;28;20141;-63
2022/02/13 17:35:10;;;;;;;22.67;10.35;;;;;;;;;;10276879;28;20034;-61
2022/02/13 17:40:11;;;;;;;34.72;9.48;;;;;;;;;;10308821;28;20030;-60
2022/02/13 17:45:11;;;;;;;26.17;9.48;;;;;;;;;;10306514;28;20034;-59
2022/02/13 17:50:12;;;;;;;18.67;9.70;;;;;;;;;;10299998;28;20561;-59
2022/02/13 17:55:12;;;;;;;13.05;9.23;;;;;;;;;;10302512;28;20433;-59
2022/02/13 18:00:14;;;;;;;17.60;8.52;;;;;;;;;;10301805;28;20046;-59
2022/02/13 18:05:17;;;;;;;17.98;9.02;;;;;;;;;;10326738;28;20022;-60
2022/02/13 18:10:17;;;;;;;14.88;8.20;;;;;;;;;;10324613;28;20121;-61
2022/02/13 18:15:18;;;;;;;18.30;9.00;;;;;;;;;;10344728;28;20397;-60
2022/02/13 18:20:20;;;;;;;17.70;8.25;;;;;;;;;;10321718;28;20501;-61
2022/02/13 18:25:20;;;;;;;12.43;8.02;;;;;;;;;;10330290;28;20026;-61
2022/02/13 18:30:21;;;;;;;17.75;8.52;;;;;;;;;;10342055;28;20029;-60
2022/02/13 18:35:22;;;;;;;17.27;8.25;;;;;;;;;;10357454;28;20030;-61
2022/02/13 18:40:22;;;;;;;18.25;8.45;;;;;;;;;;10331803;28;20095;-59
2022/02/13 18:45:24;;;;;;;22.85;8.57;;;;;;;;;;10325054;28;20038;-62
2022/02/13 18:50:25;;;;;;;21.55;8.70;;;;;;;;;;10324898;28;20030;-65
2022/02/13 18:55:25;;;;;;;15.93;8.00;;;;;;;;;;10323441;28;20031;-62
2022/02/13 19:00:25;;;;;;;16.87;7.30;;;;;;;;;;10322562;28;20558;-63
2022/02/13 19:05:26;;;;;;;19.67;8.15;;;;;;;;;;10324973;28;20034;-62
2022/02/13 19:10:26;;;;;;;15.17;8.43;;;;;;;;;;10325738;28;20113;-65
2022/02/13 19:15:29;;;;;;;12.93;7.85;;;;;;;;;;10320512;28;20027;-63
2022/02/13 19:20:30;;;;;;;31.55;9.05;;;;;;;;;;10316152;28;20521;-64
2022/02/13 19:25:32;;;;;;;47.75;11.02;;;;;;;;;;10325042;28;20030;-64
2022/02/13 19:30:32;;;;;;;29.73;10.20;;;;;;;;;;10312209;28;20042;-60
2022/02/13 19:35:33;;;;;;;28.50;9.97;;;;;;;;;;10319362;28;20041;-69
2022/02/13 19:40:36;;;;;;;17.23;8.80;;;;;;;;;;10327183;28;20550;-64
2022/02/13 19:45:37;;;;;;;26.90;8.90;;;;;;;;;;10325799;28;20378;-64
2022/02/13 19:50:39;;;;;;;17.45;8.48;;;;;;;;;;10326617;28;20054;-65
2022/02/13 19:55:39;;;;;;;15.27;7.80;;;;;;;;;;10326994;28;20089;-67
2022/02/13 20:00:40;;;;;;;20.63;8.82;;;;;;;;;;10254140;28;20213;-65
2022/02/13 20:05:40;;;;;;;16.75;9.02;;;;;;;;;;10253676;28;20030;-64
2022/02/13 20:10:41;;;;;;;19.00;9.25;;;;;;;;;;10252363;28;20045;-63
2022/02/13 20:15:41;;;;;;;20.40;8.33;;;;;;;;;;10247759;28;20033;-64
2022/02/13 20:20:42;;;;;;;27.47;9.47;;;;;;;;;;10241262;28;21109;-65
2022/02/13 20:25:42;;;;;;;32.77;10.23;;;;;;;;;;10251792;28;20053;-63
2022/02/13 20:30:43;;;;;;;30.23;9.13;;;;;;;;;;10253552;28;20540;-67
2022/02/13 20:35:43;;;;;;;24.90;9.32;;;;;;;;;;10251674;28;20460;-63
2022/02/13 20:40:44;;;;;;;20.73;9.50;;;;;;;;;;10246708;28;20050;-65
2022/02/13 20:45:44;;;;;;;19.88;9.13;;;;;;;;;;10253191;28;20137;-65
2022/02/13 20:50:45;;;;;;;18.02;9.13;;;;;;;;;;10253089;28;20535;-63
2022/02/13 20:55:45;;;;;;;20.88;8.80;;;;;;;;;;10252518;28;20378;-65
2022/02/13 21:00:46;;;;;;;18.50;8.53;;;;;;;;;;10252171;28;20038;-64
2022/02/13 21:05:51;;;;;;;23.85;9.48;;;;;;;;;;10249910;28;20026;-66
2022/02/13 21:10:52;;;;;;;23.70;9.13;;;;;;;;;;10250445;28;20077;-63
2022/02/13 21:15:54;;;;;;;16.23;8.95;;;;;;;;;;10251960;28;20030;-62
2022/02/13 21:20:57;;;;;;;21.90;9.05;;;;;;;;;;10245634;28;20425;-63
2022/02/13 21:25:57;;;;;;;16.23;8.32;;;;;;;;;;10242851;28;20065;-63
2022/02/13 21:30:58;;;;;;;21.98;8.85;;;;;;;;;;10247027;28;20030;-62
2022/02/13 21:35:58;;;;;;;13.30;8.07;;;;;;;;;;10242713;28;20391;-63
2022/02/13 21:40:58;;;;;;;21.30;8.80;;;;;;;;;;10242584;28;20854;-63
2022/02/13 21:45:59;;;;;;;15.47;8.27;;;;;;;;;;10233065;28;20556;-65
2022/02/13 21:50:59;;;;;;;14.07;8.50;;;;;;;;;;10248932;28;20879;-64
2022/02/13 21:56:00;;;;;;;13.27;8.37;;;;;;;;;;10246970;28;20037;-65
2022/02/13 22:01:00;;;;;;;16.87;7.87;;;;;;;;;;10237164;28;20488;-65
2022/02/13 22:06:01;;;;;;;15.90;8.43;;;;;;;;;;10254658;28;20479;-66
2022/02/13 22:11:05;;;;;;;18.70;8.10;;;;;;;;;;10257845;28;20777;-63
2022/02/13 22:16:07;;;;;;;15.80;8.13;;;;;;;;;;10305414;28;20045;-61
2022/02/13 22:21:08;;;;;;;18.40;8.57;;;;;;;;;;10324147;28;20038;-62
2022/02/13 22:26:09;;;;;;;23.02;9.15;;;;;;;;;;10322528;28;20096;-61
2022/02/13 22:31:10;;;;;;;22.42;8.07;;;;;;;;;;10329611;28;20043;-63
2022/02/13 22:36:11;;;;;;;16.85;8.25;;;;;;;;;;10321870;28;20114;-64
2022/02/13 22:41:12;;;;;;;27.23;8.65;;;;;;;;;;10315333;28;20489;-63
2022/02/13 22:46:13;;;;;;;23.95;8.38;;;;;;;;;;10306148;28;20077;-64
2022/02/13 22:51:14;;;;;;;12.25;7.70;;;;;;;;;;10325105;28;20052;-63
2022/02/13 22:56:15;;;;;;;13.85;7.30;;;;;;;;;;10347112;28;20072;-62
2022/02/13 23:01:16;;;;;;;15.02;7.55;;;;;;;;;;10332619;28;20113;-61
2022/02/13 23:06:17;;;;;;;17.13;7.82;;;;;;;;;;10331553;28;20080;-61
2022/02/13 23:16:37;;;;;;;10.48;7.03;;;;;;;;;;10327857;28;20034;-61
2022/02/13 23:21:38;;;;;;;13.93;7.95;;;;;;;;;;10329855;28;20050;-61
2022/02/13 23:26:39;;;;;;;11.30;7.50;;;;;;;;;;10320921;28;20432;-61
2022/02/13 23:31:40;;;;;;;16.42;7.32;;;;;;;;;;10319673;28;20412;-61
2022/02/13 23:36:41;;;;;;;10.30;7.10;;;;;;;;;;10322728;28;20042;-62
2022/02/13 23:41:42;;;;;;;25.60;7.30;;;;;;;;;;10323118;28;20370;-62
2022/02/13 23:46:43;;;;;;;13.73;7.22;;;;;;;;;;10315233;28;20035;-61
2022/02/13 23:51:44;;;;;;;13.45;8.07;;;;;;;;;;10324594;28;20042;-61
2022/02/13 23:56:46;;;;;;;11.88;7.43;;;;;;;;;;10312134;28;20085;-62
